sensor_id;sensor_type;location;lat;lon;timestamp;temperature;humidity
25440;DHT22;13365;52.208;5.488;2024-03-02T00:02:23;12.90;99.90
25440;DHT22;13365;52.208;5.488;2024-03-02T00:04:49;12.70;99.90
25440;DHT22;13365;52.208;5.488;2024-03-02T00:07:14;12.70;99.90
25440;DHT22;13365;52.208;5.488;2024-03-02T00:09:40;12.80;99.90
25440;DHT22;13365;52.208;5.488;2024-03-02T00:12:06;12.80;99.90
25440;DHT22;13365;52.208;5.488;2024-03-02T00:14:31;12.80;99.90
25440;DHT22;13365;52.208;5.488;2024-03-02T00:16:57;12.60;99.90
25440;DHT22;13365;52.208;5.488;2024-03-02T00:19:22;12.70;99.90
25440;DHT22;13365;52.208;5.488;2024-03-02T00:21:48;12.80;99.90
25440;DHT22;13365;52.208;5.488;2024-03-02T00:26:45;12.80;99.90
25440;DHT22;13365;52.208;5.488;2024-03-02T00:29:11;12.80;99.90
25440;DHT22;13365;52.208;5.488;2024-03-02T00:31:39;12.90;99.90
25440;DHT22;13365;52.208;5.488;2024-03-02T00:34:05;12.80;99.90
25440;DHT22;13365;52.208;5.488;2024-03-02T00:36:31;12.70;99.90
25440;DHT22;13365;52.208;5.488;2024-03-02T00:38:56;12.70;99.90
25440;DHT22;13365;52.208;5.488;2024-03-02T00:41:22;12.70;99.90
25440;DHT22;13365;52.208;5.488;2024-03-02T00:43:58;12.80;99.90
25440;DHT22;13365;52.208;5.488;2024-03-02T00:46:24;12.80;99.90
25440;DHT22;13365;52.208;5.488;2024-03-02T00:48:56;12.60;99.90
25440;DHT22;13365;52.208;5.488;2024-03-02T00:51:23;12.60;99.90
25440;DHT22;13365;52.208;5.488;2024-03-02T00:53:49;12.80;99.90
25440;DHT22;13365;52.208;5.488;2024-03-02T00:56:16;12.80;99.90
25440;DHT22;13365;52.208;5.488;2024-03-02T00:58:42;13.00;99.90
25440;DHT22;13365;52.208;5.488;2024-03-02T01:01:07;13.00;99.90
25440;DHT22;13365;52.208;5.488;2024-03-02T01:03:33;13.00;99.90
25440;DHT22;13365;52.208;5.488;2024-03-02T01:05:59;12.70;99.90
25440;DHT22;13365;52.208;5.488;2024-03-02T01:08:25;12.50;99.90
25440;DHT22;13365;52.208;5.488;2024-03-02T01:10:51;12.40;99.90
25440;DHT22;13365;52.208;5.488;2024-03-02T01:13:17;12.30;99.90
25440;DHT22;13365;52.208;5.488;2024-03-02T01:15:42;12.30;99.90
25440;DHT22;13365;52.208;5.488;2024-03-02T01:18:09;12.10;99.90
25440;DHT22;13365;52.208;5.488;2024-03-02T01:20:34;11.90;99.90
25440;DHT22;13365;52.208;5.488;2024-03-02T01:23:00;12.00;99.90
25440;DHT22;13365;52.208;5.488;2024-03-02T01:25:26;12.10;99.90
25440;DHT22;13365;52.208;5.488;2024-03-02T01:27:51;12.00;99.90
25440;DHT22;13365;52.208;5.488;2024-03-02T01:30:17;12.00;99.90
25440;DHT22;13365;52.208;5.488;2024-03-02T01:32:42;11.90;99.90
25440;DHT22;13365;52.208;5.488;2024-03-02T01:35:08;11.90;99.90
25440;DHT22;13365;52.208;5.488;2024-03-02T01:37:34;12.00;99.90
25440;DHT22;13365;52.208;5.488;2024-03-02T01:40:00;12.10;99.90
25440;DHT22;13365;52.208;5.488;2024-03-02T01:42:25;12.20;99.90
25440;DHT22;13365;52.208;5.488;2024-03-02T01:44:51;12.20;99.90
25440;DHT22;13365;52.208;5.488;2024-03-02T01:47:16;12.10;99.90
25440;DHT22;13365;52.208;5.488;2024-03-02T01:49:42;12.20;99.90
25440;DHT22;13365;52.208;5.488;2024-03-02T01:52:07;12.20;99.90
25440;DHT22;13365;52.208;5.488;2024-03-02T01:54:33;12.30;99.90
25440;DHT22;13365;52.208;5.488;2024-03-02T01:56:59;12.60;99.90
25440;DHT22;13365;52.208;5.488;2024-03-02T01:59:25;12.40;99.90
25440;DHT22;13365;52.208;5.488;2024-03-02T02:01:51;12.10;99.90
25440;DHT22;13365;52.208;5.488;2024-03-02T02:04:16;12.20;99.90
25440;DHT22;13365;52.208;5.488;2024-03-02T02:06:43;12.30;99.90
25440;DHT22;13365;52.208;5.488;2024-03-02T02:09:09;12.30;99.90
25440;DHT22;13365;52.208;5.488;2024-03-02T02:11:34;12.20;99.90
25440;DHT22;13365;52.208;5.488;2024-03-02T02:14:00;12.30;99.90
25440;DHT22;13365;52.208;5.488;2024-03-02T02:16:25;12.30;99.90
25440;DHT22;13365;52.208;5.488;2024-03-02T02:18:51;12.20;99.90
25440;DHT22;13365;52.208;5.488;2024-03-02T02:21:16;12.30;99.90
25440;DHT22;13365;52.208;5.488;2024-03-02T02:23:42;12.30;99.90
25440;DHT22;13365;52.208;5.488;2024-03-02T02:26:11;12.30;99.90
25440;DHT22;13365;52.208;5.488;2024-03-02T02:28:37;12.30;99.90
25440;DHT22;13365;52.208;5.488;2024-03-02T02:31:03;12.20;99.90
25440;DHT22;13365;52.208;5.488;2024-03-02T02:33:28;12.10;99.90
25440;DHT22;13365;52.208;5.488;2024-03-02T02:35:54;12.00;99.90
25440;DHT22;13365;52.208;5.488;2024-03-02T02:38:19;12.00;99.90
25440;DHT22;13365;52.208;5.488;2024-03-02T02:40:45;11.80;99.90
25440;DHT22;13365;52.208;5.488;2024-03-02T02:43:11;11.90;99.90
25440;DHT22;13365;52.208;5.488;2024-03-02T02:45:36;11.80;99.90
25440;DHT22;13365;52.208;5.488;2024-03-02T02:48:02;11.80;99.90
25440;DHT22;13365;52.208;5.488;2024-03-02T02:50:28;11.70;99.90
25440;DHT22;13365;52.208;5.488;2024-03-02T02:52:53;11.80;99.90
25440;DHT22;13365;52.208;5.488;2024-03-02T02:55:19;11.70;99.90
25440;DHT22;13365;52.208;5.488;2024-03-02T02:57:44;11.60;99.90
25440;DHT22;13365;52.208;5.488;2024-03-02T03:00:11;11.40;99.90
25440;DHT22;13365;52.208;5.488;2024-03-02T03:02:40;11.30;99.90
25440;DHT22;13365;52.208;5.488;2024-03-02T03:05:07;11.30;99.90
25440;DHT22;13365;52.208;5.488;2024-03-02T03:07:33;11.20;99.90
25440;DHT22;13365;52.208;5.488;2024-03-02T03:10:00;11.10;99.90
25440;DHT22;13365;52.208;5.488;2024-03-02T03:12:25;10.90;99.90
25440;DHT22;13365;52.208;5.488;2024-03-02T03:14:51;11.00;99.90
25440;DHT22;13365;52.208;5.488;2024-03-02T03:17:16;11.10;99.90
25440;DHT22;13365;52.208;5.488;2024-03-02T03:19:42;11.10;99.90
25440;DHT22;13365;52.208;5.488;2024-03-02T03:22:08;11.30;99.90
25440;DHT22;13365;52.208;5.488;2024-03-02T03:24:33;11.40;99.90
25440;DHT22;13365;52.208;5.488;2024-03-02T03:26:59;11.30;99.90
25440;DHT22;13365;52.208;5.488;2024-03-02T03:29:24;11.40;99.90
25440;DHT22;13365;52.208;5.488;2024-03-02T03:31:50;11.40;99.90
25440;DHT22;13365;52.208;5.488;2024-03-02T03:34:15;11.30;99.90
25440;DHT22;13365;52.208;5.488;2024-03-02T03:36:41;11.30;99.90
25440;DHT22;13365;52.208;5.488;2024-03-02T03:39:07;11.30;99.90
25440;DHT22;13365;52.208;5.488;2024-03-02T03:41:32;11.10;99.90
25440;DHT22;13365;52.208;5.488;2024-03-02T03:43:58;11.10;99.90
25440;DHT22;13365;52.208;5.488;2024-03-02T03:46:23;11.10;99.90
25440;DHT22;13365;52.208;5.488;2024-03-02T03:48:49;11.00;99.90
25440;DHT22;13365;52.208;5.488;2024-03-02T03:51:14;11.20;99.90
25440;DHT22;13365;52.208;5.488;2024-03-02T03:53:40;11.10;99.90
25440;DHT22;13365;52.208;5.488;2024-03-02T03:56:05;11.10;99.90
25440;DHT22;13365;52.208;5.488;2024-03-02T03:58:31;11.20;99.90
25440;DHT22;13365;52.208;5.488;2024-03-02T04:00:56;11.20;99.90
25440;DHT22;13365;52.208;5.488;2024-03-02T04:03:22;11.30;99.90
25440;DHT22;13365;52.208;5.488;2024-03-02T04:05:47;11.40;99.90
25440;DHT22;13365;52.208;5.488;2024-03-02T04:08:13;11.30;99.90
25440;DHT22;13365;52.208;5.488;2024-03-02T04:10:38;11.10;99.90
25440;DHT22;13365;52.208;5.488;2024-03-02T04:13:05;11.20;99.90
25440;DHT22;13365;52.208;5.488;2024-03-02T04:15:31;11.20;99.90
25440;DHT22;13365;52.208;5.488;2024-03-02T04:17:56;11.10;99.90
25440;DHT22;13365;52.208;5.488;2024-03-02T04:20:22;11.30;99.90
25440;DHT22;13365;52.208;5.488;2024-03-02T04:22:47;11.50;99.90
25440;DHT22;13365;52.208;5.488;2024-03-02T04:25:13;11.40;99.90
25440;DHT22;13365;52.208;5.488;2024-03-02T04:27:38;11.60;99.90
25440;DHT22;13365;52.208;5.488;2024-03-02T04:30:04;11.60;99.90
25440;DHT22;13365;52.208;5.488;2024-03-02T04:32:30;11.60;99.90
25440;DHT22;13365;52.208;5.488;2024-03-02T04:34:56;11.50;99.90
25440;DHT22;13365;52.208;5.488;2024-03-02T04:37:22;11.60;99.90
25440;DHT22;13365;52.208;5.488;2024-03-02T04:39:47;11.70;99.90
25440;DHT22;13365;52.208;5.488;2024-03-02T04:42:13;11.60;99.90
25440;DHT22;13365;52.208;5.488;2024-03-02T04:44:39;11.60;99.90
25440;DHT22;13365;52.208;5.488;2024-03-02T04:47:04;11.40;99.90
25440;DHT22;13365;52.208;5.488;2024-03-02T04:49:30;11.30;99.90
25440;DHT22;13365;52.208;5.488;2024-03-02T04:51:56;11.20;99.90
25440;DHT22;13365;52.208;5.488;2024-03-02T04:54:22;11.30;99.90
25440;DHT22;13365;52.208;5.488;2024-03-02T04:56:47;11.40;99.90
25440;DHT22;13365;52.208;5.488;2024-03-02T04:59:16;11.30;99.90
25440;DHT22;13365;52.208;5.488;2024-03-02T05:01:42;11.40;99.90
25440;DHT22;13365;52.208;5.488;2024-03-02T05:04:08;11.40;99.90
25440;DHT22;13365;52.208;5.488;2024-03-02T05:06:34;11.50;99.90
25440;DHT22;13365;52.208;5.488;2024-03-02T05:08:59;11.50;99.90
25440;DHT22;13365;52.208;5.488;2024-03-02T05:11:24;11.30;99.90
25440;DHT22;13365;52.208;5.488;2024-03-02T05:14:02;11.20;99.90
25440;DHT22;13365;52.208;5.488;2024-03-02T05:16:28;11.20;99.90
25440;DHT22;13365;52.208;5.488;2024-03-02T05:18:53;11.10;99.90
25440;DHT22;13365;52.208;5.488;2024-03-02T05:21:19;11.10;99.90
25440;DHT22;13365;52.208;5.488;2024-03-02T05:23:45;11.00;99.90
25440;DHT22;13365;52.208;5.488;2024-03-02T05:26:10;11.10;99.90
25440;DHT22;13365;52.208;5.488;2024-03-02T05:28:38;11.10;99.90
25440;DHT22;13365;52.208;5.488;2024-03-02T05:31:04;11.20;99.90
25440;DHT22;13365;52.208;5.488;2024-03-02T05:33:29;11.30;99.90
25440;DHT22;13365;52.208;5.488;2024-03-02T05:35:56;11.40;99.90
25440;DHT22;13365;52.208;5.488;2024-03-02T05:38:22;11.30;99.90
25440;DHT22;13365;52.208;5.488;2024-03-02T05:40:47;11.20;99.90
25440;DHT22;13365;52.208;5.488;2024-03-02T05:43:13;11.40;99.90
25440;DHT22;13365;52.208;5.488;2024-03-02T05:45:38;11.40;99.90
25440;DHT22;13365;52.208;5.488;2024-03-02T05:48:05;11.40;99.90
25440;DHT22;13365;52.208;5.488;2024-03-02T05:50:31;11.50;99.90
25440;DHT22;13365;52.208;5.488;2024-03-02T05:52:56;11.40;99.90
25440;DHT22;13365;52.208;5.488;2024-03-02T05:55:22;11.10;99.90
25440;DHT22;13365;52.208;5.488;2024-03-02T05:57:47;11.10;99.90
25440;DHT22;13365;52.208;5.488;2024-03-02T06:00:24;11.00;99.90
25440;DHT22;13365;52.208;5.488;2024-03-02T06:02:50;11.00;99.90
25440;DHT22;13365;52.208;5.488;2024-03-02T06:05:15;10.80;99.90
25440;DHT22;13365;52.208;5.488;2024-03-02T06:07:43;10.70;99.90
25440;DHT22;13365;52.208;5.488;2024-03-02T06:10:08;10.60;99.90
25440;DHT22;13365;52.208;5.488;2024-03-02T06:12:34;10.80;99.90
25440;DHT22;13365;52.208;5.488;2024-03-02T06:14:59;10.80;99.90
25440;DHT22;13365;52.208;5.488;2024-03-02T06:17:25;11.00;99.90
25440;DHT22;13365;52.208;5.488;2024-03-02T06:19:50;11.10;99.90
25440;DHT22;13365;52.208;5.488;2024-03-02T06:22:16;11.20;99.90
25440;DHT22;13365;52.208;5.488;2024-03-02T06:24:41;11.30;99.90
25440;DHT22;13365;52.208;5.488;2024-03-02T06:27:07;11.20;99.90
25440;DHT22;13365;52.208;5.488;2024-03-02T06:29:33;11.30;99.90
25440;DHT22;13365;52.208;5.488;2024-03-02T06:31:59;11.40;99.90
25440;DHT22;13365;52.208;5.488;2024-03-02T06:34:24;11.40;99.90
25440;DHT22;13365;52.208;5.488;2024-03-02T06:36:50;11.40;99.90
25440;DHT22;13365;52.208;5.488;2024-03-02T06:39:15;11.30;99.90
25440;DHT22;13365;52.208;5.488;2024-03-02T06:41:41;11.10;99.90
25440;DHT22;13365;52.208;5.488;2024-03-02T06:44:07;11.10;99.90
25440;DHT22;13365;52.208;5.488;2024-03-02T06:46:33;11.00;99.90
25440;DHT22;13365;52.208;5.488;2024-03-02T06:48:58;11.00;99.90
25440;DHT22;13365;52.208;5.488;2024-03-02T06:51:24;11.00;99.90
25440;DHT22;13365;52.208;5.488;2024-03-02T06:53:49;11.20;99.90
25440;DHT22;13365;52.208;5.488;2024-03-02T06:56:15;11.10;99.90
25440;DHT22;13365;52.208;5.488;2024-03-02T06:58:41;11.10;99.90
25440;DHT22;13365;52.208;5.488;2024-03-02T07:01:08;11.20;99.90
25440;DHT22;13365;52.208;5.488;2024-03-02T07:03:33;11.30;99.90
25440;DHT22;13365;52.208;5.488;2024-03-02T07:05:59;11.40;99.90
25440;DHT22;13365;52.208;5.488;2024-03-02T07:08:24;11.40;99.90
25440;DHT22;13365;52.208;5.488;2024-03-02T07:10:50;11.40;99.90
25440;DHT22;13365;52.208;5.488;2024-03-02T07:13:15;11.50;99.90
25440;DHT22;13365;52.208;5.488;2024-03-02T07:15:41;11.60;99.90
25440;DHT22;13365;52.208;5.488;2024-03-02T07:18:12;11.70;99.90
25440;DHT22;13365;52.208;5.488;2024-03-02T07:20:37;11.90;99.90
25440;DHT22;13365;52.208;5.488;2024-03-02T07:23:04;12.00;99.90
25440;DHT22;13365;52.208;5.488;2024-03-02T07:25:29;12.10;99.90
25440;DHT22;13365;52.208;5.488;2024-03-02T07:27:55;12.00;99.90
25440;DHT22;13365;52.208;5.488;2024-03-02T07:30:20;12.20;99.90
25440;DHT22;13365;52.208;5.488;2024-03-02T07:32:46;12.30;99.90
25440;DHT22;13365;52.208;5.488;2024-03-02T07:35:15;12.40;99.90
25440;DHT22;13365;52.208;5.488;2024-03-02T07:37:43;12.30;99.90
25440;DHT22;13365;52.208;5.488;2024-03-02T07:40:09;12.20;99.90
25440;DHT22;13365;52.208;5.488;2024-03-02T07:42:37;12.20;99.90
25440;DHT22;13365;52.208;5.488;2024-03-02T07:45:04;12.10;99.90
25440;DHT22;13365;52.208;5.488;2024-03-02T07:47:29;12.20;99.90
25440;DHT22;13365;52.208;5.488;2024-03-02T07:49:55;12.30;99.90
25440;DHT22;13365;52.208;5.488;2024-03-02T07:52:20;12.20;99.90
25440;DHT22;13365;52.208;5.488;2024-03-02T07:54:46;12.10;99.90
25440;DHT22;13365;52.208;5.488;2024-03-02T07:57:11;12.20;99.90
25440;DHT22;13365;52.208;5.488;2024-03-02T07:59:37;12.30;99.90
25440;DHT22;13365;52.208;5.488;2024-03-02T08:02:02;12.50;99.90
25440;DHT22;13365;52.208;5.488;2024-03-02T08:04:28;12.60;99.90
25440;DHT22;13365;52.208;5.488;2024-03-02T08:06:53;12.70;99.90
25440;DHT22;13365;52.208;5.488;2024-03-02T08:09:19;12.70;99.90
25440;DHT22;13365;52.208;5.488;2024-03-02T08:11:45;12.60;99.90
25440;DHT22;13365;52.208;5.488;2024-03-02T08:14:10;12.80;99.90
25440;DHT22;13365;52.208;5.488;2024-03-02T08:16:36;12.60;99.90
25440;DHT22;13365;52.208;5.488;2024-03-02T08:19:01;12.60;99.90
25440;DHT22;13365;52.208;5.488;2024-03-02T08:21:28;12.30;99.90
25440;DHT22;13365;52.208;5.488;2024-03-02T08:23:56;12.00;99.90
25440;DHT22;13365;52.208;5.488;2024-03-02T08:26:22;11.70;99.90
25440;DHT22;13365;52.208;5.488;2024-03-02T08:28:48;11.60;99.90
25440;DHT22;13365;52.208;5.488;2024-03-02T08:31:13;11.80;99.90
25440;DHT22;13365;52.208;5.488;2024-03-02T08:33:39;11.80;99.90
25440;DHT22;13365;52.208;5.488;2024-03-02T08:36:05;11.80;99.90
25440;DHT22;13365;52.208;5.488;2024-03-02T08:38:31;12.00;99.90
25440;DHT22;13365;52.208;5.488;2024-03-02T08:40:57;11.90;99.90
25440;DHT22;13365;52.208;5.488;2024-03-02T08:43:22;12.00;99.90
25440;DHT22;13365;52.208;5.488;2024-03-02T08:45:48;12.30;99.90
25440;DHT22;13365;52.208;5.488;2024-03-02T08:48:13;12.30;99.90
25440;DHT22;13365;52.208;5.488;2024-03-02T08:50:39;12.30;99.90
25440;DHT22;13365;52.208;5.488;2024-03-02T08:53:04;12.50;99.90
25440;DHT22;13365;52.208;5.488;2024-03-02T08:55:30;12.70;99.90
25440;DHT22;13365;52.208;5.488;2024-03-02T08:57:55;12.70;99.90
25440;DHT22;13365;52.208;5.488;2024-03-02T09:00:21;12.60;99.90
25440;DHT22;13365;52.208;5.488;2024-03-02T09:02:47;12.60;99.90
25440;DHT22;13365;52.208;5.488;2024-03-02T09:05:12;12.70;99.90
25440;DHT22;13365;52.208;5.488;2024-03-02T09:07:38;12.90;99.90
25440;DHT22;13365;52.208;5.488;2024-03-02T09:10:04;13.00;99.90
25440;DHT22;13365;52.208;5.488;2024-03-02T09:12:30;13.20;99.90
25440;DHT22;13365;52.208;5.488;2024-03-02T09:14:55;13.10;99.90
25440;DHT22;13365;52.208;5.488;2024-03-02T09:17:21;13.20;99.90
25440;DHT22;13365;52.208;5.488;2024-03-02T09:19:46;13.50;99.90
25440;DHT22;13365;52.208;5.488;2024-03-02T09:22:12;13.50;99.90
25440;DHT22;13365;52.208;5.488;2024-03-02T09:24:38;13.60;99.90
25440;DHT22;13365;52.208;5.488;2024-03-02T09:27:04;13.70;99.90
25440;DHT22;13365;52.208;5.488;2024-03-02T09:29:29;13.80;99.90
25440;DHT22;13365;52.208;5.488;2024-03-02T09:31:55;13.70;99.90
25440;DHT22;13365;52.208;5.488;2024-03-02T09:34:22;13.60;99.90
25440;DHT22;13365;52.208;5.488;2024-03-02T09:36:47;13.70;99.90
25440;DHT22;13365;52.208;5.488;2024-03-02T09:39:13;13.70;99.90
25440;DHT22;13365;52.208;5.488;2024-03-02T09:41:39;13.80;99.90
25440;DHT22;13365;52.208;5.488;2024-03-02T09:44:05;13.70;99.90
25440;DHT22;13365;52.208;5.488;2024-03-02T09:46:31;13.80;99.90
25440;DHT22;13365;52.208;5.488;2024-03-02T09:48:56;14.00;99.90
25440;DHT22;13365;52.208;5.488;2024-03-02T09:51:22;14.10;99.90
25440;DHT22;13365;52.208;5.488;2024-03-02T09:53:48;14.30;99.50
25440;DHT22;13365;52.208;5.488;2024-03-02T09:56:14;14.30;99.80
25440;DHT22;13365;52.208;5.488;2024-03-02T09:58:41;14.40;99.90
25440;DHT22;13365;52.208;5.488;2024-03-02T10:01:07;14.60;99.90
25440;DHT22;13365;52.208;5.488;2024-03-02T10:03:33;14.90;99.90
25440;DHT22;13365;52.208;5.488;2024-03-02T10:08:44;15.00;99.00
25440;DHT22;13365;52.208;5.488;2024-03-02T10:11:09;15.00;98.70
25440;DHT22;13365;52.208;5.488;2024-03-02T10:13:34;15.00;98.30
25440;DHT22;13365;52.208;5.488;2024-03-02T10:16:04;15.20;97.60
25440;DHT22;13365;52.208;5.488;2024-03-02T10:18:36;15.10;97.10
25440;DHT22;13365;52.208;5.488;2024-03-02T10:21:12;15.20;96.70
25440;DHT22;13365;52.208;5.488;2024-03-02T10:23:38;15.30;97.80
25440;DHT22;13365;52.208;5.488;2024-03-02T10:26:08;15.50;97.00
25440;DHT22;13365;52.208;5.488;2024-03-02T10:28:45;15.70;96.70
25440;DHT22;13365;52.208;5.488;2024-03-02T10:31:12;15.80;95.50
25440;DHT22;13365;52.208;5.488;2024-03-02T10:33:37;15.80;95.70
25440;DHT22;13365;52.208;5.488;2024-03-02T10:36:03;15.90;95.10
25440;DHT22;13365;52.208;5.488;2024-03-02T10:38:30;15.70;94.80
25440;DHT22;13365;52.208;5.488;2024-03-02T10:40:56;15.60;94.50
25440;DHT22;13365;52.208;5.488;2024-03-02T10:43:24;15.60;95.50
25440;DHT22;13365;52.208;5.488;2024-03-02T10:45:49;15.70;95.10
25440;DHT22;13365;52.208;5.488;2024-03-02T10:48:16;15.90;94.70
25440;DHT22;13365;52.208;5.488;2024-03-02T10:50:41;15.80;93.70
25440;DHT22;13365;52.208;5.488;2024-03-02T10:53:07;15.70;93.30
25440;DHT22;13365;52.208;5.488;2024-03-02T10:55:32;15.60;93.70
25440;DHT22;13365;52.208;5.488;2024-03-02T10:57:58;15.60;93.50
25440;DHT22;13365;52.208;5.488;2024-03-02T11:00:26;15.60;93.30
25440;DHT22;13365;52.208;5.488;2024-03-02T11:02:56;15.70;93.70
25440;DHT22;13365;52.208;5.488;2024-03-02T11:05:24;15.90;92.60
25440;DHT22;13365;52.208;5.488;2024-03-02T11:07:52;15.90;92.80
25440;DHT22;13365;52.208;5.488;2024-03-02T11:10:18;15.90;93.10
25440;DHT22;13365;52.208;5.488;2024-03-02T11:12:56;15.90;93.70
25440;DHT22;13365;52.208;5.488;2024-03-02T11:15:25;16.00;93.40
25440;DHT22;13365;52.208;5.488;2024-03-02T11:17:52;16.20;92.80
25440;DHT22;13365;52.208;5.488;2024-03-02T11:20:18;16.30;92.60
25440;DHT22;13365;52.208;5.488;2024-03-02T11:22:45;16.60;92.50
25440;DHT22;13365;52.208;5.488;2024-03-02T11:25:27;16.40;91.70
25440;DHT22;13365;52.208;5.488;2024-03-02T11:32:59;16.60;90.80
25440;DHT22;13365;52.208;5.488;2024-03-02T11:35:28;16.50;90.40
25440;DHT22;13365;52.208;5.488;2024-03-02T11:37:56;16.50;90.90
25440;DHT22;13365;52.208;5.488;2024-03-02T11:40:27;16.60;91.40
25440;DHT22;13365;52.208;5.488;2024-03-02T11:42:52;16.70;90.10
25440;DHT22;13365;52.208;5.488;2024-03-02T11:45:25;16.70;90.20
25440;DHT22;13365;52.208;5.488;2024-03-02T11:47:50;16.70;90.80
25440;DHT22;13365;52.208;5.488;2024-03-02T11:50:35;16.80;90.60
25440;DHT22;13365;52.208;5.488;2024-03-02T11:53:03;16.90;92.30
25440;DHT22;13365;52.208;5.488;2024-03-02T11:55:31;17.10;92.10
25440;DHT22;13365;52.208;5.488;2024-03-02T11:57:59;17.30;91.20
25440;DHT22;13365;52.208;5.488;2024-03-02T12:00:26;17.30;90.70
25440;DHT22;13365;52.208;5.488;2024-03-02T12:03:01;17.30;90.80
25440;DHT22;13365;52.208;5.488;2024-03-02T12:05:27;17.40;90.40
25440;DHT22;13365;52.208;5.488;2024-03-02T12:07:57;17.40;90.10
25440;DHT22;13365;52.208;5.488;2024-03-02T12:10:23;17.40;90.10
25440;DHT22;13365;52.208;5.488;2024-03-02T12:12:54;17.20;89.60
25440;DHT22;13365;52.208;5.488;2024-03-02T12:15:22;17.30;89.10
25440;DHT22;13365;52.208;5.488;2024-03-02T12:17:48;17.20;88.10
25440;DHT22;13365;52.208;5.488;2024-03-02T12:20:13;17.10;88.30
25440;DHT22;13365;52.208;5.488;2024-03-02T12:22:39;17.20;90.30
25440;DHT22;13365;52.208;5.488;2024-03-02T12:25:04;17.00;88.00
25440;DHT22;13365;52.208;5.488;2024-03-02T12:27:30;17.20;88.40
25440;DHT22;13365;52.208;5.488;2024-03-02T12:29:55;17.30;89.10
25440;DHT22;13365;52.208;5.488;2024-03-02T12:32:21;17.40;87.70
25440;DHT22;13365;52.208;5.488;2024-03-02T12:34:47;17.20;89.40
25440;DHT22;13365;52.208;5.488;2024-03-02T12:37:13;17.30;90.00
25440;DHT22;13365;52.208;5.488;2024-03-02T12:39:39;17.30;89.70
25440;DHT22;13365;52.208;5.488;2024-03-02T12:42:04;17.40;88.20
25440;DHT22;13365;52.208;5.488;2024-03-02T12:44:30;17.50;87.70
25440;DHT22;13365;52.208;5.488;2024-03-02T12:46:55;17.50;88.10
25440;DHT22;13365;52.208;5.488;2024-03-02T12:49:21;17.50;87.30
25440;DHT22;13365;52.208;5.488;2024-03-02T12:51:47;17.50;87.60
25440;DHT22;13365;52.208;5.488;2024-03-02T12:54:17;17.60;86.40
25440;DHT22;13365;52.208;5.488;2024-03-02T12:56:42;17.50;85.00
25440;DHT22;13365;52.208;5.488;2024-03-02T12:59:17;17.60;85.80
25440;DHT22;13365;52.208;5.488;2024-03-02T13:01:52;17.60;84.70
25440;DHT22;13365;52.208;5.488;2024-03-02T13:04:24;17.40;84.40
25440;DHT22;13365;52.208;5.488;2024-03-02T13:06:51;17.20;85.20
25440;DHT22;13365;52.208;5.488;2024-03-02T13:09:16;17.20;85.50
25440;DHT22;13365;52.208;5.488;2024-03-02T13:11:42;17.00;85.70
25440;DHT22;13365;52.208;5.488;2024-03-02T13:14:07;17.00;86.30
25440;DHT22;13365;52.208;5.488;2024-03-02T13:16:38;17.20;86.00
25440;DHT22;13365;52.208;5.488;2024-03-02T13:19:04;17.30;86.10
25440;DHT22;13365;52.208;5.488;2024-03-02T13:21:29;17.40;86.30
25440;DHT22;13365;52.208;5.488;2024-03-02T13:23:54;17.40;86.50
25440;DHT22;13365;52.208;5.488;2024-03-02T13:26:20;17.50;85.80
25440;DHT22;13365;52.208;5.488;2024-03-02T13:28:46;17.60;85.00
25440;DHT22;13365;52.208;5.488;2024-03-02T13:31:11;17.70;85.10
25440;DHT22;13365;52.208;5.488;2024-03-02T13:33:37;17.70;85.40
25440;DHT22;13365;52.208;5.488;2024-03-02T13:36:03;17.80;85.70
25440;DHT22;13365;52.208;5.488;2024-03-02T13:38:28;17.70;84.30
25440;DHT22;13365;52.208;5.488;2024-03-02T13:40:54;17.70;85.00
25440;DHT22;13365;52.208;5.488;2024-03-02T13:43:19;17.60;83.00
25440;DHT22;13365;52.208;5.488;2024-03-02T13:45:45;17.50;83.90
25440;DHT22;13365;52.208;5.488;2024-03-02T13:48:10;17.60;84.00
25440;DHT22;13365;52.208;5.488;2024-03-02T13:50:36;17.60;84.60
25440;DHT22;13365;52.208;5.488;2024-03-02T13:53:01;17.60;83.30
25440;DHT22;13365;52.208;5.488;2024-03-02T13:55:28;17.50;84.80
25440;DHT22;13365;52.208;5.488;2024-03-02T13:57:54;17.50;83.70
25440;DHT22;13365;52.208;5.488;2024-03-02T14:00:19;17.50;83.70
25440;DHT22;13365;52.208;5.488;2024-03-02T14:02:45;17.50;83.40
25440;DHT22;13365;52.208;5.488;2024-03-02T14:05:10;17.30;84.20
25440;DHT22;13365;52.208;5.488;2024-03-02T14:07:43;17.20;83.70
25440;DHT22;13365;52.208;5.488;2024-03-02T14:10:09;17.20;84.80
25440;DHT22;13365;52.208;5.488;2024-03-02T14:12:34;17.30;84.10
25440;DHT22;13365;52.208;5.488;2024-03-02T14:15:00;17.20;84.20
25440;DHT22;13365;52.208;5.488;2024-03-02T14:17:28;17.30;83.80
25440;DHT22;13365;52.208;5.488;2024-03-02T14:19:53;17.30;83.90
25440;DHT22;13365;52.208;5.488;2024-03-02T14:22:21;17.10;83.50
25440;DHT22;13365;52.208;5.488;2024-03-02T14:24:47;17.20;84.60
25440;DHT22;13365;52.208;5.488;2024-03-02T14:27:14;17.40;84.60
25440;DHT22;13365;52.208;5.488;2024-03-02T14:29:40;17.40;84.50
25440;DHT22;13365;52.208;5.488;2024-03-02T14:32:06;17.40;84.00
25440;DHT22;13365;52.208;5.488;2024-03-02T14:34:31;17.40;84.10
25440;DHT22;13365;52.208;5.488;2024-03-02T14:36:58;17.50;84.70
25440;DHT22;13365;52.208;5.488;2024-03-02T14:39:24;17.50;87.20
25440;DHT22;13365;52.208;5.488;2024-03-02T14:41:49;17.40;87.30
25440;DHT22;13365;52.208;5.488;2024-03-02T14:44:15;17.20;88.90
25440;DHT22;13365;52.208;5.488;2024-03-02T14:46:40;17.10;88.70
25440;DHT22;13365;52.208;5.488;2024-03-02T14:49:06;17.20;89.50
25440;DHT22;13365;52.208;5.488;2024-03-02T14:51:32;17.40;90.10
25440;DHT22;13365;52.208;5.488;2024-03-02T14:53:58;17.50;89.60
25440;DHT22;13365;52.208;5.488;2024-03-02T14:56:23;17.60;89.90
25440;DHT22;13365;52.208;5.488;2024-03-02T14:58:49;17.60;89.30
25440;DHT22;13365;52.208;5.488;2024-03-02T15:01:16;17.70;89.70
25440;DHT22;13365;52.208;5.488;2024-03-02T15:03:42;17.90;88.30
25440;DHT22;13365;52.208;5.488;2024-03-02T15:06:08;18.20;85.60
25440;DHT22;13365;52.208;5.488;2024-03-02T15:08:33;18.40;85.90
25440;DHT22;13365;52.208;5.488;2024-03-02T15:10:59;18.90;85.30
25440;DHT22;13365;52.208;5.488;2024-03-02T15:13:25;19.30;85.80
25440;DHT22;13365;52.208;5.488;2024-03-02T15:15:51;19.50;82.90
25440;DHT22;13365;52.208;5.488;2024-03-02T15:18:17;19.30;81.80
25440;DHT22;13365;52.208;5.488;2024-03-02T15:20:43;19.30;81.40
25440;DHT22;13365;52.208;5.488;2024-03-02T15:23:08;19.00;81.60
25440;DHT22;13365;52.208;5.488;2024-03-02T15:25:34;18.60;82.30
25440;DHT22;13365;52.208;5.488;2024-03-02T15:27:59;18.60;82.90
25440;DHT22;13365;52.208;5.488;2024-03-02T15:30:25;18.30;82.20
25440;DHT22;13365;52.208;5.488;2024-03-02T15:32:50;18.40;83.10
25440;DHT22;13365;52.208;5.488;2024-03-02T15:35:16;18.10;83.60